createdAt,value
2022-09-26T04:08:27.003Z,23.48
2022-09-26T04:11:29.890Z,22.25
2022-09-26T04:14:32.749Z,21.52
2022-09-26T04:17:35.125Z,22.27
2022-09-26T04:20:37.677Z,21.55
2022-09-26T04:23:41.085Z,22.33
2022-09-26T04:26:44.467Z,21.35
2022-09-26T04:29:46.798Z,20.33
2022-09-26T04:32:49.069Z,20.35
2022-09-26T04:35:52.957Z,19.30
2022-09-26T04:38:55.093Z,19.67
2022-09-26T04:41:58.434Z,22.00
2022-09-26T04:45:00.483Z,21.23
2022-09-26T04:48:03.031Z,19.05
2022-09-26T04:51:09.286Z,19.77
2022-09-26T04:54:12.362Z,20.12
2022-09-26T04:57:19.371Z,18.65
2022-09-26T05:00:23.259Z,19.65
2022-09-26T05:03:25.809Z,19.42
2022-09-26T05:06:28.437Z,19.50
2022-09-26T05:09:35.571Z,19.90
2022-09-26T05:12:41.424Z,19.42
2022-09-26T05:15:43.497Z,19.35
2022-09-26T05:18:52.242Z,19.37
2022-09-26T05:21:56.717Z,20.12
2022-09-26T05:25:17.978Z,19.70
2022-09-26T05:28:20.060Z,19.52
2022-09-26T05:31:25.428Z,19.15
2022-09-26T05:34:28.075Z,20.67
2022-09-26T05:37:31.006Z,20.20
2022-09-26T05:40:52.055Z,21.08
2022-09-26T05:43:54.634Z,22.05
2022-09-26T05:46:57.473Z,20.50
2022-09-26T05:50:01.117Z,22.05
2022-09-26T05:53:04.550Z,21.05
2022-09-26T05:56:12.748Z,21.60
2022-09-26T05:59:23.218Z,20.65
2022-09-26T06:02:26.909Z,20.33
2022-09-26T06:05:31.516Z,20.83
2022-09-26T06:08:36.972Z,21.55
2022-09-26T06:11:39.932Z,21.02
2022-09-26T06:14:46.904Z,22.10
2022-09-26T06:17:57.686Z,21.58
2022-09-26T06:21:04.582Z,21.58
2022-09-26T06:24:08.519Z,23.20
2022-09-26T06:27:10.810Z,22.70
2022-09-26T06:30:13.927Z,23.30
2022-09-26T06:33:16.277Z,22.73
2022-09-26T06:36:22.596Z,24.00
2022-09-26T06:39:31.428Z,23.15
2022-09-26T06:42:37.826Z,25.20
2022-09-26T06:45:45.815Z,25.73
2022-09-26T06:51:50.354Z,25.12
2022-09-26T06:54:56.426Z,25.90
2022-09-26T06:57:58.685Z,26.25
2022-09-26T07:01:02.089Z,25.85
2022-09-26T07:04:05.871Z,26.17
2022-09-26T07:07:08.629Z,25.73
2022-09-26T07:10:10.983Z,25.85
2022-09-26T07:13:15.659Z,26.77
2022-09-26T07:16:18.312Z,26.40
2022-09-26T07:19:21.644Z,26.70
2022-09-26T07:22:25.944Z,26.62
2022-09-26T07:25:31.287Z,26.87
2022-09-26T07:28:34.025Z,26.92
2022-09-26T07:31:37.113Z,26.92
2022-09-26T07:34:43.229Z,25.70
2022-09-26T07:37:52.780Z,25.77
2022-09-26T07:40:55.366Z,25.15
2022-09-26T07:47:42.408Z,24.83
2022-09-26T07:50:46.360Z,25.23
2022-09-26T07:53:48.935Z,25.75
2022-09-26T07:56:53.691Z,26.42
2022-09-26T07:59:55.844Z,25.80
2022-09-26T08:03:01.405Z,25.02
2022-09-26T08:06:04.961Z,25.37
2022-09-26T08:09:07.967Z,23.80
2022-09-26T08:12:15.071Z,24.27
2022-09-26T08:15:21.321Z,21.27
2022-09-26T08:18:25.201Z,21.35
2022-09-26T08:21:27.285Z,20.70
2022-09-26T08:24:30.534Z,20.23
2022-09-26T08:27:34.141Z,19.87
2022-09-26T08:30:36.963Z,20.30
2022-09-26T08:33:39.443Z,20.05
2022-09-26T08:36:41.838Z,21.00
2022-09-26T08:39:44.930Z,21.15
2022-09-26T08:43:11.105Z,18.27
2022-09-26T08:46:29.642Z,18.50
2022-09-26T08:49:51.229Z,18.00
2022-09-26T08:53:15.846Z,19.08
2022-09-26T08:56:22.791Z,19.53
2022-09-26T09:03:12.760Z,17.92
2022-09-26T09:06:18.484Z,17.70
2022-09-26T09:09:21.787Z,15.18
2022-09-26T09:12:39.287Z,14.40
2022-09-26T09:16:12.899Z,14.23
2022-09-26T09:19:38.885Z,14.30
2022-09-26T09:23:07.545Z,12.10
2022-09-26T09:30:17.154Z,11.55
2022-09-26T09:33:29.457Z,10.60
2022-09-26T09:36:41.896Z,9.60
2022-09-26T09:39:48.233Z,8.80
2022-09-26T09:43:26.821Z,9.50
2022-09-26T09:46:29.440Z,8.23
2022-09-26T09:49:32.081Z,6.75
2022-09-26T09:53:10.005Z,6.68
2022-09-26T09:56:32.989Z,5.90
2022-09-26T10:00:09.995Z,6.37
2022-09-26T10:03:29.541Z,5.68
2022-09-26T10:06:46.280Z,5.82
2022-09-26T10:09:51.735Z,5.93
2022-09-26T10:13:03.621Z,5.93
2022-09-26T10:16:09.873Z,6.28
2022-09-26T10:19:13.943Z,6.97
2022-09-26T10:22:19.714Z,6.80
2022-09-26T10:25:26.243Z,6.65
2022-09-26T10:31:42.334Z,6.57
2022-09-26T10:35:04.024Z,6.40
2022-09-26T10:38:18.313Z,6.65
2022-09-26T10:41:25.325Z,5.95
2022-09-26T10:44:33.947Z,5.75
2022-09-26T10:47:40.690Z,5.80
2022-09-26T10:50:52.176Z,5.40
2022-09-26T10:54:13.036Z,5.30
2022-09-26T10:57:23.213Z,5.50
2022-09-26T11:00:37.364Z,5.40
2022-09-26T11:03:43.966Z,5.55
2022-09-26T11:06:49.606Z,5.32
2022-09-26T11:09:56.923Z,5.45
2022-09-26T11:13:22.792Z,5.87
2022-09-26T11:16:27.089Z,5.70
2022-09-26T11:19:54.644Z,5.65
2022-09-26T11:23:19.755Z,4.65
2022-09-26T11:26:54.665Z,4.78
2022-09-26T11:30:11.508Z,4.87
2022-09-26T11:33:18.698Z,4.97
2022-09-26T11:37:00.696Z,5.10
2022-09-26T11:40:12.286Z,4.45
2022-09-26T11:43:27.625Z,4.72
2022-09-26T11:46:58.966Z,5.18
2022-09-26T11:50:20.285Z,4.25
2022-09-26T11:53:46.044Z,4.80
2022-09-26T11:57:31.879Z,4.05
2022-09-26T12:00:58.489Z,4.05
2022-09-26T12:04:32.677Z,3.92
2022-09-26T12:07:44.551Z,3.97
2022-09-26T12:11:05.472Z,4.05
2022-09-26T12:14:36.025Z,3.87
2022-09-26T12:18:05.998Z,3.90
2022-09-26T12:21:34.255Z,4.07
2022-09-26T12:24:51.502Z,4.00
2022-09-26T12:28:19.766Z,4.47
2022-09-26T12:31:54.760Z,4.60
2022-09-26T12:35:21.102Z,4.62
2022-09-26T12:38:44.847Z,3.67
2022-09-26T12:42:02.651Z,4.12
2022-09-26T12:45:31.746Z,4.20
2022-09-26T12:49:11.477Z,4.28
2022-09-26T12:52:39.839Z,4.18
2022-09-26T12:55:51.245Z,3.85
2022-09-26T12:59:29.105Z,3.58
2022-09-26T13:02:46.796Z,3.30
2022-09-26T13:06:14.857Z,2.60
2022-09-26T13:09:31.693Z,2.90
2022-09-26T13:12:47.203Z,2.87
2022-09-26T13:16:00.001Z,3.30
2022-09-26T13:19:16.443Z,4.00
2022-09-26T13:22:21.976Z,3.47
2022-09-26T13:25:49.394Z,3.03
2022-09-26T13:29:17.217Z,3.45
2022-09-26T13:32:34.115Z,3.70
2022-09-26T13:35:41.049Z,4.40
2022-09-26T13:39:00.007Z,4.22
2022-09-26T13:42:11.144Z,3.97
2022-09-26T13:45:33.403Z,3.75
2022-09-26T13:48:46.153Z,3.62
2022-09-26T13:52:01.178Z,3.70
2022-09-26T13:55:10.836Z,3.78
2022-09-26T13:58:21.444Z,4.03
2022-09-26T14:01:27.505Z,3.67
2022-09-26T14:04:36.421Z,4.30
2022-09-26T14:07:57.133Z,3.53
2022-09-26T14:11:11.841Z,4.37
2022-09-26T14:14:16.810Z,3.95
2022-09-26T14:17:44.915Z,4.05
2022-09-26T14:20:57.224Z,4.68
2022-09-26T14:24:21.160Z,4.65
2022-09-26T14:27:36.120Z,4.40
2022-09-26T14:30:38.563Z,4.30
2022-09-26T14:33:42.949Z,3.90
2022-09-26T14:36:46.881Z,3.62
2022-09-26T14:40:00.068Z,3.83
2022-09-26T14:43:17.479Z,3.30
2022-09-26T14:46:25.606Z,3.40
2022-09-26T14:49:28.830Z,3.12
2022-09-26T14:52:32.673Z,3.87
2022-09-26T14:55:34.995Z,3.95
2022-09-26T14:58:37.173Z,3.95
2022-09-26T15:01:39.868Z,3.90
2022-09-26T15:04:43.544Z,3.05
2022-09-26T15:07:53.990Z,3.45
2022-09-26T15:10:57.952Z,3.10
2022-09-26T15:14:10.858Z,3.50
2022-09-26T15:17:18.529Z,3.58
2022-09-26T15:20:22.698Z,3.50
2022-09-26T15:23:32.156Z,3.45
2022-09-26T15:26:36.724Z,3.72
2022-09-26T15:29:48.444Z,3.85
2022-09-26T15:32:56.838Z,3.72
2022-09-26T15:36:01.139Z,3.80
2022-09-26T15:39:32.145Z,3.55
2022-09-26T15:42:53.004Z,4.03
2022-09-26T15:45:58.800Z,3.72
2022-09-26T15:49:00.894Z,4.03
2022-09-26T15:52:04.650Z,3.87
2022-09-26T15:55:09.244Z,3.85
